Time;durP1;ratioP1;P1;durP2;ratioP2;P2;SDS_P1;SDS_P2;PMS_P1;PMS_P2;Temp;Humidity;BMP_temperature;BMP_pressure;BME280_temperature;BME280_humidity;BME280_pressure;Samples;Min_cycle;Max_cycle;Signal;HPM_P1;HPM_P2
2023/07/08 00:02:53;;;;;;;6.78;2.50;;;21.00;99.90;;;;;;7379320;32;20499;-56
2023/07/08 00:06:55;;;;;;;6.20;3.17;;;21.00;99.90;;;;;;7377858;32;20153;-55
2023/07/08 00:10:57;;;;;;;3.92;2.37;;;21.00;99.90;;;;;;7369217;32;20248;-55
2023/07/08 00:14:59;;;;;;;5.93;2.65;;;21.00;99.90;;;;;;7380090;32;20202;-55
2023/07/08 00:19:01;;;;;;;4.00;2.25;;;21.00;99.90;;;;;;7378487;32;20107;-56
2023/07/08 00:23:03;;;;;;;7.75;2.70;;;21.00;99.90;;;;;;7365633;32;20399;-56
2023/07/08 00:27:07;;;;;;;6.32;2.55;;;21.10;99.90;;;;;;7357755;32;20206;-56
2023/07/08 00:31:13;;;;;;;6.50;2.62;;;21.10;99.90;;;;;;7372406;32;20430;-56
2023/07/08 00:35:15;;;;;;;4.80;3.10;;;21.00;99.90;;;;;;7379143;32;20102;-56
2023/07/08 00:39:17;;;;;;;6.28;2.70;;;21.00;99.90;;;;;;7380691;32;20107;-56
2023/07/08 00:43:31;;;;;;;5.18;2.50;;;20.90;99.90;;;;;;7366138;32;20191;-56
2023/07/08 00:47:33;;;;;;;7.95;2.45;;;21.00;99.90;;;;;;7379793;32;20163;-56
2023/07/08 00:51:39;;;;;;;3.78;2.33;;;20.90;99.90;;;;;;7372986;32;20119;-56
2023/07/08 00:55:41;;;;;;;3.95;2.55;;;20.90;99.90;;;;;;7368396;32;20099;-56
2023/07/08 00:59:57;;;;;;;2.83;2.28;;;20.80;99.90;;;;;;7378465;32;20123;-56
2023/07/08 01:04:07;;;;;;;3.65;2.37;;;20.70;99.90;;;;;;7376278;32;20474;-56
2023/07/08 01:08:09;;;;;;;3.95;2.42;;;20.40;99.90;;;;;;7369106;32;20111;-56
2023/07/08 01:12:23;;;;;;;7.50;2.85;;;20.20;99.90;;;;;;7377388;32;20107;-54
2023/07/08 01:16:25;;;;;;;5.80;2.50;;;20.10;99.90;;;;;;7374427;32;20401;-54
2023/07/08 01:20:27;;;;;;;5.35;2.33;;;20.00;99.90;;;;;;7369680;32;20510;-54
2023/07/08 01:24:32;;;;;;;3.90;2.58;;;19.80;99.90;;;;;;7378531;32;20500;-54
2023/07/08 01:28:35;;;;;;;4.95;2.60;;;19.70;99.90;;;;;;7381102;32;20334;-55
2023/07/08 01:32:41;;;;;;;8.32;3.22;;;19.50;99.90;;;;;;7371293;32;20127;-54
2023/07/08 01:36:52;;;;;;;5.80;3.08;;;19.30;99.90;;;;;;7374456;32;20559;-54
2023/07/08 01:40:57;;;;;;;4.97;2.45;;;19.10;99.90;;;;;;7374238;32;20136;-56
2023/07/08 01:44:59;;;;;;;5.22;2.45;;;19.10;99.90;;;;;;7379559;32;20194;-56
2023/07/08 01:49:01;;;;;;;5.90;2.85;;;19.00;99.90;;;;;;7368894;32;20152;-56
2023/07/08 01:53:10;;;;;;;4.75;2.75;;;19.00;99.90;;;;;;7370613;32;20129;-56
2023/07/08 01:57:12;;;;;;;4.15;2.78;;;18.90;99.90;;;;;;7370872;32;20127;-56
2023/07/08 02:01:14;;;;;;;3.92;2.70;;;18.80;99.90;;;;;;7374797;32;20098;-56
2023/07/08 02:05:16;;;;;;;7.57;2.95;;;18.70;99.90;;;;;;7374185;32;20136;-55
2023/07/08 02:09:18;;;;;;;5.15;2.53;;;18.60;99.90;;;;;;7374470;32;20107;-56
2023/07/08 02:13:21;;;;;;;5.15;2.83;;;18.50;99.90;;;;;;7373644;32;20698;-56
2023/07/08 02:17:23;;;;;;;4.72;3.17;;;18.30;99.90;;;;;;7365986;32;20103;-56
2023/07/08 02:21:25;;;;;;;5.15;2.58;;;18.30;99.90;;;;;;7380481;32;20115;-56
2023/07/08 02:25:27;;;;;;;2.97;2.37;;;18.20;99.90;;;;;;7371995;32;20126;-56
2023/07/08 02:29:29;;;;;;;4.20;2.80;;;18.30;99.90;;;;;;7370207;32;20107;-57
2023/07/08 02:33:32;;;;;;;6.25;2.85;;;18.20;99.90;;;;;;7381816;32;20198;-56
2023/07/08 02:37:34;;;;;;;6.12;2.87;;;18.10;99.90;;;;;;7377703;32;20185;-54
2023/07/08 02:41:37;;;;;;;6.30;3.08;;;18.00;99.90;;;;;;7368404;32;20577;-54
2023/07/08 02:45:38;;;;;;;8.27;3.20;;;18.00;99.90;;;;;;7375554;32;20543;-55
2023/07/08 02:49:40;;;;;;;3.97;2.90;;;17.90;99.90;;;;;;7376630;32;20707;-55
2023/07/08 02:53:43;;;;;;;6.68;3.28;;;17.80;99.90;;;;;;7384831;32;20524;-56
2023/07/08 02:57:45;;;;;;;5.15;2.70;;;17.90;99.90;;;;;;7372615;32;20115;-56
2023/07/08 03:01:47;;;;;;;5.45;2.90;;;18.00;99.90;;;;;;7376343;32;20107;-56
2023/07/08 03:05:57;;;;;;;5.35;3.00;;;18.00;99.90;;;;;;7378686;32;20126;-56
2023/07/08 03:09:59;;;;;;;5.60;3.00;;;18.00;99.90;;;;;;7376087;32;20137;-55
2023/07/08 03:14:01;;;;;;;4.53;2.78;;;18.00;99.90;;;;;;7372420;32;20115;-56
2023/07/08 03:18:03;;;;;;;3.75;3.22;;;17.90;99.90;;;;;;7384672;32;20126;-56
2023/07/08 03:22:06;;;;;;;8.25;3.20;;;17.90;99.90;;;;;;7377942;32;20123;-56
2023/07/08 03:26:18;;;;;;;3.87;2.90;;;17.80;99.90;;;;;;7368824;32;20150;-56
2023/07/08 03:30:20;;;;;;;5.47;3.37;;;17.70;99.90;;;;;;7371083;32;20176;-56
2023/07/08 03:34:22;;;;;;;3.80;2.78;;;17.60;99.90;;;;;;7371244;32;20433;-56
2023/07/08 03:38:23;;;;;;;4.82;3.28;;;17.60;99.90;;;;;;7370361;32;20138;-56
2023/07/08 03:42:25;;;;;;;4.32;2.97;;;17.60;99.90;;;;;;7377039;32;20245;-56
2023/07/08 03:46:27;;;;;;;4.82;3.15;;;17.70;99.90;;;;;;7374030;32;20098;-56
2023/07/08 03:50:29;;;;;;;6.45;3.53;;;17.70;99.90;;;;;;7375775;32;20125;-56
2023/07/08 03:54:31;;;;;;;3.87;2.85;;;17.80;99.90;;;;;;7375389;32;20210;-55
2023/07/08 03:58:32;;;;;;;3.75;2.78;;;17.60;99.90;;;;;;7375964;32;20121;-56
2023/07/08 04:02:35;;;;;;;4.00;3.20;;;17.50;99.90;;;;;;7382620;32;20111;-56
2023/07/08 04:06:37;;;;;;;4.47;2.83;;;17.50;99.90;;;;;;7371385;32;20102;-56
2023/07/08 04:10:39;;;;;;;3.75;3.00;;;17.40;99.90;;;;;;7378453;32;20518;-54
2023/07/08 04:14:42;;;;;;;5.32;3.10;;;17.40;99.90;;;;;;7371303;32;20292;-54
2023/07/08 04:18:44;;;;;;;6.60;3.28;;;17.40;99.90;;;;;;7366579;32;20182;-54
2023/07/08 04:22:46;;;;;;;6.32;3.35;;;17.40;99.90;;;;;;7371818;32;20720;-56
2023/07/08 04:26:48;;;;;;;7.55;3.03;;;17.30;99.90;;;;;;7373488;32;20115;-56
2023/07/08 04:30:50;;;;;;;7.05;3.67;;;17.40;99.90;;;;;;7376803;32;20280;-57
2023/07/08 04:34:52;;;;;;;5.68;3.12;;;17.50;99.90;;;;;;7376995;32;20184;-56
2023/07/08 04:38:56;;;;;;;6.03;3.40;;;17.60;99.90;;;;;;7370142;32;20547;-56
2023/07/08 04:42:59;;;;;;;6.62;3.60;;;17.60;99.90;;;;;;7372632;32;20763;-57
2023/07/08 04:47:01;;;;;;;6.22;3.20;;;17.80;99.90;;;;;;7374182;32;20157;-57
2023/07/08 04:51:03;;;;;;;5.03;3.22;;;18.00;99.90;;;;;;7368963;32;20127;-57
2023/07/08 04:55:05;;;;;;;6.12;3.22;;;18.40;99.90;;;;;;7374788;32;20106;-56
2023/07/08 04:59:19;;;;;;;6.50;3.37;;;18.70;99.90;;;;;;7378155;32;20111;-57
2023/07/08 05:03:20;;;;;;;6.57;3.20;;;19.10;99.90;;;;;;7375336;32;20202;-57
2023/07/08 05:07:22;;;;;;;4.62;3.03;;;19.70;99.90;;;;;;7372504;32;20662;-56
2023/07/08 05:11:24;;;;;;;5.07;3.05;;;20.10;99.90;;;;;;7369952;32;20111;-54
2023/07/08 05:15:26;;;;;;;5.32;3.25;;;20.60;99.90;;;;;;7375224;32;20133;-55
2023/07/08 05:19:28;;;;;;;7.03;3.60;;;20.80;99.90;;;;;;7371036;32;20119;-55
2023/07/08 05:23:30;;;;;;;6.60;3.33;;;20.80;99.90;;;;;;7375206;32;20133;-55
2023/07/08 05:27:35;;;;;;;5.30;3.25;;;21.20;99.90;;;;;;7373399;32;20197;-55
2023/07/08 05:31:36;;;;;;;3.60;2.90;;;21.80;99.90;;;;;;7372296;32;20175;-55
2023/07/08 05:35:48;;;;;;;4.20;3.25;;;22.30;99.90;;;;;;7370608;32;20147;-56
2023/07/08 05:39:53;;;;;;;3.97;2.95;;;23.00;99.90;;;;;;7377203;32;20107;-56
2023/07/08 05:43:55;;;;;;;9.40;3.47;;;23.50;99.90;;;;;;7368089;32;20133;-56
2023/07/08 05:47:57;;;;;;;4.68;3.40;;;24.20;99.90;;;;;;7378340;32;20767;-56
2023/07/08 05:52:05;;;;;;;5.93;3.00;;;24.50;99.90;;;;;;7377098;32;20103;-56
2023/07/08 05:56:07;;;;;;;7.68;3.00;;;25.00;99.90;;;;;;7372913;32;20110;-56
2023/07/08 06:00:10;;;;;;;5.90;3.40;;;25.10;99.90;;;;;;7381410;32;20498;-56
2023/07/08 06:04:12;;;;;;;4.87;3.30;;;25.60;99.90;;;;;;7374834;32;20107;-56
2023/07/08 06:08:14;;;;;;;6.10;3.30;;;26.10;99.90;;;;;;7375875;32;20134;-56
2023/07/08 06:12:16;;;;;;;5.65;3.62;;;26.20;99.90;;;;;;7377076;32;20172;-56
2023/07/08 06:16:18;;;;;;;4.30;3.40;;;26.40;99.90;;;;;;7382948;32;20102;-56
2023/07/08 06:20:39;;;;;;;4.65;3.53;;;26.90;99.90;;;;;;7381977;32;20535;-55
2023/07/08 06:24:41;;;;;;;7.57;3.55;;;27.10;99.90;;;;;;7370558;32;20257;-55
2023/07/08 06:28:43;;;;;;;4.60;3.60;;;27.60;99.90;;;;;;7373311;32;20130;-55
2023/07/08 06:32:45;;;;;;;6.53;3.58;;;27.70;99.90;;;;;;7377205;32;20163;-57
2023/07/08 06:36:47;;;;;;;7.25;5.35;;;27.80;99.90;;;;;;7376090;32;20107;-57
2023/07/08 06:40:49;;;;;;;6.75;4.78;;;28.40;99.90;;;;;;7375657;32;20127;-57
2023/07/08 06:44:50;;;;;;;9.00;4.78;;;28.70;99.90;;;;;;7380975;32;20185;-57
2023/07/08 06:48:54;;;;;;;7.10;4.25;;;28.80;99.90;;;;;;7374107;32;20509;-57
2023/07/08 06:52:56;;;;;;;7.20;4.85;;;29.20;99.90;;;;;;7379437;32;20107;-57
2023/07/08 06:56:58;;;;;;;6.78;4.57;;;29.30;99.90;;;;;;7365818;32;20099;-57
2023/07/08 07:01:00;;;;;;;11.23;6.43;;;29.30;99.40;;;;;;7369708;32;20548;-57
2023/07/08 07:05:03;;;;;;;7.68;5.65;;;29.40;99.20;;;;;;7371451;32;20141;-57
2023/07/08 07:09:05;;;;;;;10.68;9.00;;;29.60;94.70;;;;;;7375588;32;20343;-57
2023/07/08 07:13:07;;;;;;;11.35;8.35;;;29.90;96.90;;;;;;7385073;32;20110;-58
2023/07/08 07:17:09;;;;;;;8.38;5.47;;;30.00;93.20;;;;;;7378653;32;20103;-58
2023/07/08 07:21:11;;;;;;;7.28;5.70;;;30.40;93.70;;;;;;7365258;32;20099;-58
2023/07/08 07:25:13;;;;;;;8.77;5.10;;;30.20;91.20;;;;;;7381844;32;20141;-58
2023/07/08 07:29:17;;;;;;;6.35;4.60;;;30.30;88.30;;;;;;7382513;32;20106;-58
2023/07/08 07:33:19;;;;;;;6.18;4.53;;;30.10;90.50;;;;;;7369348;32;20099;-58
2023/07/08 07:37:22;;;;;;;9.13;4.62;;;30.30;91.00;;;;;;7374829;32;20650;-58
2023/07/08 07:41:24;;;;;;;5.65;4.45;;;30.20;85.90;;;;;;7379188;32;20531;-58
2023/07/08 07:45:26;;;;;;;8.82;4.80;;;29.90;87.30;;;;;;7371216;32;20125;-58
2023/07/08 07:49:27;;;;;;;9.50;4.72;;;29.40;86.00;;;;;;7375000;32;20127;-58
2023/07/08 07:53:29;;;;;;;7.22;5.00;;;29.00;87.50;;;;;;7379335;32;20129;-58
2023/07/08 07:57:31;;;;;;;8.25;5.03;;;28.60;89.20;;;;;;7374262;32;20463;-58
2023/07/08 08:01:33;;;;;;;6.80;4.72;;;28.40;80.20;;;;;;7374927;32;20099;-58
2023/07/08 08:05:35;;;;;;;8.98;5.28;;;28.50;90.10;;;;;;7377144;32;20210;-58
2023/07/08 08:09:37;;;;;;;7.15;5.03;;;28.70;83.60;;;;;;7368603;32;20207;-58
2023/07/08 08:13:39;;;;;;;11.38;5.53;;;29.00;79.60;;;;;;7379321;32;20130;-58
2023/07/08 08:17:41;;;;;;;6.62;5.47;;;28.70;84.40;;;;;;7383730;32;20099;-58
2023/07/08 08:21:42;;;;;;;7.93;5.45;;;28.40;86.20;;;;;;7370213;32;20111;-58
2023/07/08 08:25:44;;;;;;;7.18;5.40;;;28.10;89.60;;;;;;7379242;32;20137;-58
2023/07/08 08:29:46;;;;;;;5.40;4.53;;;28.80;88.40;;;;;;7374844;32;20422;-58
2023/07/08 08:33:48;;;;;;;7.45;5.05;;;29.80;90.30;;;;;;7382889;32;20124;-58
2023/07/08 08:37:50;;;;;;;9.55;4.75;;;30.30;84.70;;;;;;7364535;32;20099;-58
2023/07/08 08:41:56;;;;;;;5.57;4.70;;;29.80;78.10;;;;;;7366634;32;20198;-58
2023/07/08 08:46:04;;;;;;;6.22;4.85;;;30.00;87.30;;;;;;7368150;32;20117;-58
2023/07/08 08:50:24;;;;;;;7.05;4.82;;;30.50;79.50;;;;;;7373029;32;20107;-58
2023/07/08 08:54:26;;;;;;;7.70;4.85;;;31.30;81.80;;;;;;7370976;32;20563;-58
2023/07/08 08:58:40;;;;;;;7.80;5.62;;;31.00;73.20;;;;;;7376972;32;20111;-58
2023/07/08 09:02:51;;;;;;;6.62;4.80;;;31.20;75.20;;;;;;7374292;32;20314;-58
2023/07/08 09:07:00;;;;;;;9.77;4.90;;;31.30;81.40;;;;;;7377765;32;20202;-58
2023/07/08 09:11:37;;;;;;;13.32;5.50;;;32.10;85.40;;;;;;7372140;32;20602;-58
2023/07/08 09:15:39;;;;;;;6.15;4.20;;;32.70;72.70;;;;;;7371686;32;20099;-57
2023/07/08 09:20:16;;;;;;;7.35;4.00;;;32.90;75.60;;;;;;7376070;32;20108;-58
2023/07/08 09:24:32;;;;;;;8.35;4.07;;;32.90;64.90;;;;;;7371709;32;20631;-58
2023/07/08 09:28:43;;;;;;;10.07;4.50;;;33.50;68.20;;;;;;7368863;32;20103;-58
2023/07/08 09:32:46;;;;;;;7.75;4.22;;;33.70;64.90;;;;;;7372939;32;20119;-57
2023/07/08 09:36:50;;;;;;;8.25;4.00;;;33.90;68.10;;;;;;7376861;32;20221;-56
2023/07/08 09:40:55;;;;;;;5.87;4.30;;;33.90;65.70;;;;;;7371341;32;20209;-56
2023/07/08 09:45:01;;;;;;;8.35;4.37;;;33.70;65.30;;;;;;7372528;32;20509;-56
2023/07/08 09:49:20;;;;;;;7.53;4.47;;;33.80;65.20;;;;;;7375280;32;20205;-56
2023/07/08 09:53:22;;;;;;;6.62;4.20;;;34.10;60.70;;;;;;7374852;32;20132;-56
2023/07/08 09:57:30;;;;;;;6.32;4.00;;;34.10;67.90;;;;;;7377880;32;20103;-56
2023/07/08 10:01:32;;;;;;;8.10;4.22;;;34.60;65.70;;;;;;7373542;32;20174;-56
2023/07/08 10:05:43;;;;;;;7.50;4.30;;;34.60;59.00;;;;;;7376119;32;20123;-56
2023/07/08 10:09:50;;;;;;;10.05;3.90;;;33.60;60.60;;;;;;7377530;32;20130;-56
2023/07/08 10:13:56;;;;;;;5.03;3.80;;;34.00;61.60;;;;;;7375635;32;20249;-56
2023/07/08 10:18:16;;;;;;;5.50;3.65;;;34.20;60.10;;;;;;7370888;32;20119;-56
2023/07/08 10:22:27;;;;;;;5.03;3.90;;;34.20;65.70;;;;;;7372353;32;20171;-57
2023/07/08 10:26:32;;;;;;;7.18;3.90;;;34.20;64.70;;;;;;7370353;32;20134;-57
2023/07/08 10:31:11;;;;;;;5.93;3.42;;;34.40;61.10;;;;;;7369963;32;20516;-56
2023/07/08 10:35:19;;;;;;;6.05;3.35;;;34.30;69.10;;;;;;7371232;32;20236;-56
2023/07/08 10:39:32;;;;;;;6.57;3.78;;;34.50;60.60;;;;;;7374428;32;20434;-56
2023/07/08 10:43:55;;;;;;;6.50;3.55;;;34.50;63.30;;;;;;7374798;32;20225;-57
2023/07/08 10:48:20;;;;;;;7.35;4.07;;;34.20;58.20;;;;;;7375959;32;20202;-57
2023/07/08 10:52:37;;;;;;;5.72;3.50;;;34.50;60.90;;;;;;7341293;32;20107;-57
2023/07/08 10:56:54;;;;;;;4.57;3.33;;;34.60;56.70;;;;;;7375789;32;20134;-57
2023/07/08 11:01:23;;;;;;;8.93;4.00;;;34.70;60.40;;;;;;7379828;32;20537;-57
2023/07/08 11:05:31;;;;;;;7.07;3.67;;;34.00;65.10;;;;;;7372539;32;20103;-57
2023/07/08 11:09:48;;;;;;;7.40;3.67;;;34.00;59.60;;;;;;7380131;32;20508;-57
2023/07/08 11:14:12;;;;;;;5.62;3.72;;;33.50;60.20;;;;;;7375092;32;20119;-56
2023/07/08 11:18:19;;;;;;;5.18;3.53;;;33.90;60.70;;;;;;7374045;32;20343;-57
2023/07/08 11:22:21;;;;;;;7.47;3.62;;;34.10;58.20;;;;;;7371785;32;20153;-57
2023/07/08 11:26:31;;;;;;;6.28;3.67;;;34.20;58.30;;;;;;7376491;32;20483;-57
2023/07/08 11:30:35;;;;;;;7.47;3.58;;;34.00;59.10;;;;;;7378806;32;20212;-57
2023/07/08 11:34:38;;;;;;;8.15;4.03;;;34.10;61.70;;;;;;7379920;32;20139;-57
2023/07/08 11:38:57;;;;;;;6.60;3.87;;;34.20;61.60;;;;;;7376982;32;20206;-57
2023/07/08 11:43:08;;;;;;;6.35;3.62;;;33.40;58.20;;;;;;7382773;32;20111;-57
2023/07/08 11:47:17;;;;;;;6.25;3.85;;;33.30;59.90;;;;;;7374274;32;20129;-57
2023/07/08 11:51:24;;;;;;;6.50;3.90;;;33.60;62.10;;;;;;7371283;32;20133;-58
2023/07/08 11:55:38;;;;;;;5.85;3.67;;;33.40;59.10;;;;;;7376884;32;20242;-58
2023/07/08 11:59:41;;;;;;;7.25;3.17;;;34.10;58.30;;;;;;7380609;32;20495;-58
2023/07/08 12:04:00;;;;;;;7.50;3.67;;;34.30;60.20;;;;;;7368386;32;20270;-58
2023/07/08 12:08:10;;;;;;;7.15;3.97;;;34.50;53.80;;;;;;7370267;32;20095;-58
2023/07/08 12:12:27;;;;;;;5.62;3.50;;;34.30;59.50;;;;;;7379928;32;20098;-58
2023/07/08 12:16:31;;;;;;;8.13;3.80;;;34.60;57.70;;;;;;7368722;32;20214;-57
2023/07/08 12:20:36;;;;;;;7.25;3.60;;;34.40;56.00;;;;;;7379631;32;20170;-58
2023/07/08 12:24:40;;;;;;;6.05;3.70;;;34.70;57.10;;;;;;7376686;32;20182;-58
2023/07/08 12:28:43;;;;;;;6.57;4.15;;;34.70;58.60;;;;;;7366709;32;20198;-58
2023/07/08 12:32:46;;;;;;;9.40;3.70;;;34.80;57.60;;;;;;7372130;32;20130;-58
2023/07/08 12:36:48;;;;;;;6.22;3.50;;;34.80;57.20;;;;;;7376669;32;20133;-58
2023/07/08 12:40:50;;;;;;;7.53;3.53;;;35.00;55.90;;;;;;7375329;32;20131;-58
2023/07/08 12:44:52;;;;;;;8.57;3.62;;;35.20;57.10;;;;;;7374077;32;20103;-58
2023/07/08 12:48:54;;;;;;;4.00;3.17;;;35.30;52.50;;;;;;7378069;32;20202;-58
2023/07/08 12:53:03;;;;;;;4.55;3.03;;;35.30;53.40;;;;;;7366391;32;20150;-58
2023/07/08 12:57:09;;;;;;;5.45;3.62;;;35.10;53.80;;;;;;7381711;32;20145;-58
2023/07/08 13:01:17;;;;;;;5.22;3.37;;;35.20;55.00;;;;;;7381926;32;20488;-58
2023/07/08 13:05:20;;;;;;;7.05;3.75;;;35.10;55.20;;;;;;7375107;32;20193;-58
2023/07/08 13:09:58;;;;;;;6.43;3.60;;;35.40;56.10;;;;;;7376734;32;20161;-58
2023/07/08 13:14:04;;;;;;;4.85;3.67;;;34.60;56.70;;;;;;7375635;32;20103;-58
2023/07/08 13:18:17;;;;;;;7.70;3.58;;;33.40;54.90;;;;;;7359719;32;20170;-58
2023/07/08 13:22:21;;;;;;;5.93;3.08;;;34.80;54.10;;;;;;7373597;32;20122;-58
2023/07/08 13:26:27;;;;;;;6.90;3.55;;;34.90;56.70;;;;;;7366776;32;20202;-58
2023/07/08 13:30:31;;;;;;;6.57;3.35;;;35.30;56.90;;;;;;7372387;32;20187;-58
2023/07/08 13:34:33;;;;;;;5.43;2.95;;;35.20;54.00;;;;;;7368289;32;20099;-57
2023/07/08 13:38:38;;;;;;;5.87;2.92;;;35.20;52.20;;;;;;7373572;32;20110;-58
2023/07/08 13:42:50;;;;;;;5.70;3.33;;;35.10;50.80;;;;;;7375312;32;20166;-58
2023/07/08 13:46:55;;;;;;;6.55;3.65;;;35.30;50.30;;;;;;7380477;32;20099;-58
2023/07/08 13:51:01;;;;;;;6.72;3.22;;;35.30;50.00;;;;;;7367257;32;20146;-58
2023/07/08 13:55:16;;;;;;;4.43;2.70;;;34.90;51.30;;;;;;7372979;32;20586;-58
2023/07/08 13:59:25;;;;;;;5.97;3.30;;;35.00;51.90;;;;;;7367675;32;20521;-57
2023/07/08 14:03:27;;;;;;;5.32;3.28;;;35.30;52.50;;;;;;7378363;32;20274;-58
2023/07/08 14:07:32;;;;;;;6.82;3.00;;;35.20;50.20;;;;;;7375046;32;20111;-58
2023/07/08 14:11:34;;;;;;;7.32;3.20;;;34.70;52.60;;;;;;7378319;32;20107;-58
2023/07/08 14:15:38;;;;;;;8.68;3.42;;;35.30;49.20;;;;;;7381531;32;20167;-58
2023/07/08 14:19:40;;;;;;;5.68;2.90;;;35.10;54.10;;;;;;7376703;32;20505;-58
2023/07/08 14:23:42;;;;;;;5.50;3.67;;;35.50;50.60;;;;;;7375714;32;20091;-58
2023/07/08 14:27:44;;;;;;;5.25;3.28;;;35.00;49.30;;;;;;7375722;32;20201;-57
2023/07/08 14:31:46;;;;;;;7.00;3.42;;;34.00;53.40;;;;;;7385948;32;20470;-58
2023/07/08 14:35:47;;;;;;;7.25;3.70;;;33.80;53.50;;;;;;7386749;32;20698;-58
2023/07/08 14:39:50;;;;;;;4.70;3.70;;;34.50;51.60;;;;;;7378943;32;20102;-58
2023/07/08 14:43:52;;;;;;;9.20;3.47;;;34.40;54.40;;;;;;7385556;32;20136;-58
2023/07/08 14:47:55;;;;;;;8.30;3.75;;;33.80;53.60;;;;;;7384450;32;20216;-58
2023/07/08 14:51:57;;;;;;;7.90;3.45;;;33.50;51.90;;;;;;7382688;32;20545;-58
2023/07/08 14:56:13;;;;;;;6.72;3.85;;;33.20;55.00;;;;;;7379396;32;20099;-58
2023/07/08 15:00:17;;;;;;;5.25;3.80;;;33.30;54.90;;;;;;7385068;32;20517;-58
2023/07/08 15:04:19;;;;;;;6.32;3.72;;;33.30;54.30;;;;;;7378843;32;20103;-58
2023/07/08 15:08:21;;;;;;;8.32;3.42;;;33.40;54.50;;;;;;7372275;32;20557;-58
2023/07/08 15:12:23;;;;;;;6.90;3.70;;;33.50;52.90;;;;;;7370019;32;20129;-58
2023/07/08 15:16:25;;;;;;;6.10;3.47;;;33.50;53.30;;;;;;7368306;32;20541;-59
2023/07/08 15:20:27;;;;;;;10.57;4.55;;;34.10;56.90;;;;;;7381283;32;20119;-58
2023/07/08 15:24:28;;;;;;;8.30;4.07;;;34.20;55.60;;;;;;7374769;32;20119;-58
2023/07/08 15:28:47;;;;;;;9.00;3.72;;;33.10;54.10;;;;;;7375607;32;20111;-58
2023/07/08 15:32:49;;;;;;;6.70;3.65;;;32.60;56.50;;;;;;7367391;32;20137;-59
2023/07/08 15:36:51;;;;;;;5.97;3.50;;;32.80;59.40;;;;;;7381134;32;20183;-58
2023/07/08 15:40:53;;;;;;;5.28;3.62;;;32.70;58.40;;;;;;7385421;32;20199;-58
2023/07/08 15:44:55;;;;;;;7.35;3.90;;;32.80;57.80;;;;;;7381837;32;20242;-58
2023/07/08 15:48:57;;;;;;;6.20;3.67;;;32.60;58.70;;;;;;7376318;32;20490;-58
2023/07/08 15:52:58;;;;;;;8.70;3.72;;;32.50;59.20;;;;;;7376942;32;20130;-58
2023/07/08 15:57:04;;;;;;;10.68;3.83;;;32.10;58.20;;;;;;7378021;32;20129;-58
2023/07/08 16:01:10;;;;;;;8.70;4.28;;;32.40;58.60;;;;;;7376900;32;20552;-58
2023/07/08 16:05:12;;;;;;;;;;;32.40;58.40;;;;;;7370948;32;20107;-58
2023/07/08 16:09:14;;;;;;;5.75;3.92;;;32.10;55.90;;;;;;7380116;32;20128;-58
2023/07/08 16:13:22;;;;;;;6.18;3.80;;;32.10;58.50;;;;;;7373089;32;20107;-58
2023/07/08 16:17:24;;;;;;;7.95;4.40;;;31.90;59.00;;;;;;7378038;32;20220;-58
2023/07/08 16:21:25;;;;;;;7.30;3.85;;;32.00;59.00;;;;;;7371589;32;20106;-58
2023/07/08 16:25:39;;;;;;;7.70;4.25;;;32.00;56.40;;;;;;7380697;32;20141;-58
2023/07/08 16:29:41;;;;;;;6.87;3.58;;;31.90;57.10;;;;;;7373718;32;20536;-58
2023/07/08 16:33:44;;;;;;;6.45;4.40;;;31.90;62.00;;;;;;7369697;32;20209;-58
2023/07/08 16:37:48;;;;;;;8.07;4.20;;;31.70;62.90;;;;;;7381486;32;20129;-58
2023/07/08 16:41:50;;;;;;;10.75;5.00;;;31.60;59.60;;;;;;7363718;32;20138;-58
2023/07/08 16:45:52;;;;;;;142.55;126.80;;;31.50;59.40;;;;;;7374210;32;20442;-57
2023/07/08 16:49:53;;;;;;;81.18;72.95;;;31.50;56.60;;;;;;7378516;32;20562;-57
2023/07/08 16:54:00;;;;;;;9.98;8.02;;;31.60;60.40;;;;;;7377547;32;20561;-58
2023/07/08 16:58:02;;;;;;;9.00;7.68;;;31.40;62.00;;;;;;7379714;32;20143;-57
2023/07/08 17:02:15;;;;;;;161.95;145.43;;;31.30;66.30;;;;;;7380586;32;20623;-57
2023/07/08 17:06:17;;;;;;;42.53;37.22;;;31.10;73.50;;;;;;7376818;32;20160;-58
2023/07/08 17:10:20;;;;;;;25.05;22.52;;;30.90;77.80;;;;;;7376526;32;20106;-58
2023/07/08 17:14:22;;;;;;;52.58;47.62;;;30.90;82.50;;;;;;7372383;32;20107;-58
2023/07/08 17:18:24;;;;;;;24.87;22.23;;;30.90;85.30;;;;;;7381938;32;20778;-57
2023/07/08 17:22:26;;;;;;;13.35;10.15;;;31.10;89.70;;;;;;7377248;32;20572;-58
2023/07/08 17:26:27;;;;;;;14.05;8.98;;;31.10;91.30;;;;;;7378069;32;20124;-58
2023/07/08 17:30:30;;;;;;;25.62;22.00;;;30.90;92.10;;;;;;7378658;32;20573;-58
2023/07/08 17:34:32;;;;;;;13.48;8.98;;;30.80;92.30;;;;;;7382599;32;20238;-58
2023/07/08 17:38:48;;;;;;;11.02;7.10;;;30.60;94.00;;;;;;7381767;32;20110;-57
2023/07/08 17:42:51;;;;;;;13.18;6.25;;;30.40;96.70;;;;;;7380563;32;20378;-58
2023/07/08 17:47:00;;;;;;;7.97;4.90;;;30.40;98.80;;;;;;7382472;32;20107;-58
2023/07/08 17:51:02;;;;;;;16.00;13.02;;;30.20;99.90;;;;;;7384672;32;20145;-57
2023/07/08 17:55:04;;;;;;;30.37;27.15;;;30.00;99.90;;;;;;7387007;32;20240;-57
2023/07/08 17:59:15;;;;;;;15.18;10.93;;;29.80;99.90;;;;;;7384975;32;20234;-58
2023/07/08 18:03:17;;;;;;;8.60;6.57;;;29.70;99.90;;;;;;7369179;32;20111;-58
2023/07/08 18:07:19;;;;;;;8.75;5.53;;;29.70;99.90;;;;;;7383301;32;20110;-57
2023/07/08 18:11:23;;;;;;;25.62;21.05;;;29.80;99.90;;;;;;7378823;32;20205;-58
2023/07/08 18:15:29;;;;;;;11.12;6.15;;;29.50;99.90;;;;;;7384866;32;20216;-57
2023/07/08 18:19:30;;;;;;;10.32;5.22;;;29.30;99.90;;;;;;7377011;32;20439;-58
2023/07/08 18:23:34;;;;;;;14.68;6.53;;;29.30;99.90;;;;;;7377138;32;20120;-58
2023/07/08 18:27:36;;;;;;;9.18;6.62;;;29.10;99.90;;;;;;7380793;32;20155;-57
2023/07/08 18:31:41;;;;;;;13.13;10.90;;;28.70;99.90;;;;;;7382413;32;20464;-57
2023/07/08 18:35:46;;;;;;;10.85;6.78;;;28.50;99.90;;;;;;7382039;32;20334;-58
2023/07/08 18:39:47;;;;;;;10.43;5.32;;;28.20;99.90;;;;;;7379363;32;20141;-57
2023/07/08 18:43:50;;;;;;;8.02;4.85;;;28.10;99.90;;;;;;7385859;32;20456;-57
2023/07/08 18:47:51;;;;;;;8.73;4.50;;;27.90;99.90;;;;;;7377141;32;20135;-57
2023/07/08 18:51:54;;;;;;;9.80;5.18;;;27.70;99.90;;;;;;7385826;32;20217;-57
2023/07/08 18:55:56;;;;;;;7.28;5.03;;;27.70;99.90;;;;;;7379204;32;20133;-57
2023/07/08 18:59:58;;;;;;;9.60;5.45;;;27.50;99.90;;;;;;7385570;32;20168;-58
2023/07/08 19:04:00;;;;;;;8.05;4.53;;;27.30;99.90;;;;;;7383041;32;20198;-57
2023/07/08 19:08:02;;;;;;;9.45;5.15;;;27.30;99.90;;;;;;7382893;32;20479;-56
2023/07/08 19:12:08;;;;;;;8.02;4.80;;;27.10;99.90;;;;;;7376123;32;20328;-57
2023/07/08 19:16:11;;;;;;;14.32;7.10;;;27.00;99.90;;;;;;7372317;32;20196;-56
2023/07/08 19:20:13;;;;;;;7.35;5.00;;;26.90;99.90;;;;;;7381557;32;20129;-57
2023/07/08 19:24:15;;;;;;;8.50;5.28;;;26.80;99.90;;;;;;7384387;32;20194;-57
2023/07/08 19:28:37;;;;;;;8.13;5.43;;;26.60;99.90;;;;;;7375496;32;20110;-58
2023/07/08 19:32:48;;;;;;;7.93;4.95;;;26.50;99.90;;;;;;7384989;32;20214;-58
2023/07/08 19:36:50;;;;;;;7.60;4.80;;;26.30;99.90;;;;;;7383439;32;20114;-58
2023/07/08 19:40:52;;;;;;;6.00;4.85;;;26.10;99.90;;;;;;7383042;32;20562;-58
2023/07/08 19:44:54;;;;;;;10.73;6.55;;;26.00;99.90;;;;;;7381114;32;20130;-58
2023/07/08 19:48:56;;;;;;;9.43;6.25;;;25.90;99.90;;;;;;7377031;32;20679;-58
2023/07/08 19:52:58;;;;;;;8.85;4.57;;;25.80;99.90;;;;;;7374183;32;20137;-58
2023/07/08 19:57:08;;;;;;;8.40;5.07;;;25.40;99.90;;;;;;7384187;32;20449;-58
2023/07/08 20:01:10;;;;;;;9.27;4.62;;;25.10;99.90;;;;;;7378044;32;20126;-57
2023/07/08 20:05:13;;;;;;;11.65;5.07;;;24.80;99.90;;;;;;7375768;32;20141;-57
2023/07/08 20:09:14;;;;;;;7.53;4.55;;;24.60;99.90;;;;;;7382495;32;20194;-57
2023/07/08 20:13:17;;;;;;;6.65;4.87;;;24.30;99.90;;;;;;7382087;32;20174;-57
2023/07/08 20:17:20;;;;;;;10.95;5.40;;;24.10;99.90;;;;;;7382947;32;20099;-54
2023/07/08 20:21:23;;;;;;;8.10;4.65;;;23.80;99.90;;;;;;7378684;32;20106;-55
2023/07/08 20:25:25;;;;;;;11.15;5.93;;;23.70;99.90;;;;;;7383164;32;20186;-54
2023/07/08 20:29:26;;;;;;;16.45;11.85;;;23.50;99.90;;;;;;7382843;32;20547;-54
2023/07/08 20:33:28;;;;;;;9.90;6.53;;;23.50;99.90;;;;;;7378874;32;20107;-57
2023/07/08 20:37:30;;;;;;;10.68;5.70;;;23.30;99.90;;;;;;7372716;32;20334;-57
2023/07/08 20:41:33;;;;;;;10.25;9.02;;;23.20;99.90;;;;;;7382631;32;20281;-57
2023/07/08 20:45:35;;;;;;;9.60;7.28;;;23.00;99.90;;;;;;7373256;32;20167;-57
2023/07/08 20:49:37;;;;;;;14.10;8.90;;;22.90;99.90;;;;;;7379455;32;20554;-57
2023/07/08 20:53:38;;;;;;;12.20;5.97;;;22.70;99.90;;;;;;7382686;32;20230;-57
2023/07/08 20:57:42;;;;;;;9.90;5.30;;;22.50;99.90;;;;;;7382435;32;20131;-57
2023/07/08 21:01:44;;;;;;;30.25;21.98;;;22.40;99.90;;;;;;7382227;32;20107;-54
2023/07/08 21:05:55;;;;;;;19.52;9.75;;;22.30;99.90;;;;;;7373609;32;20174;-54
2023/07/08 21:09:57;;;;;;;14.85;5.50;;;22.30;99.90;;;;;;7365577;32;20453;-54
2023/07/08 21:14:00;;;;;;;10.70;5.55;;;22.10;99.90;;;;;;7373261;32;20099;-54